McPherson, Kansas
Current Conditions -  °F | °C
As of 3:52 PM on Thursday 27 Nov 2014 (Local Time) from KHUT Reporting Station
Clear Clear  
Wind Chill:   Ceiling: Unl
Heat Index:   Visibility: 10mi
Dew Point: -8°   Wind: 20mph
Humidity: 31%   Direction: 180°S
Pressure: 30.28"   Gusts: 26mph
Location:  38.37°N, 97.67°W
Report Text: KHUT 272152Z 18017G23KT 10SM CLR 08/M08 A3028 RMK AO2 SLP258 T00781083
Loading
Personal Weather Stations






























Interactive Weather Map New forecast layout! Learn more

10-Day Weather Forecast

Advertisements
Track Severe Weather on mobile